sensor_id;sensor_type;location;lat;lon;timestamp;P1;durP1;ratioP1;P2;durP2;ratioP2
23260;SDS011;11799;47.740;-3.390;2023-09-08T00:01:24;8.23;;;6.00;;
23260;SDS011;11799;47.740;-3.390;2023-09-08T00:03:50;9.70;;;5.65;;
23260;SDS011;11799;47.740;-3.390;2023-09-08T00:06:15;6.25;;;5.60;;
23260;SDS011;11799;47.740;-3.390;2023-09-08T00:08:41;8.73;;;5.25;;
23260;SDS011;11799;47.740;-3.390;2023-09-08T00:11:08;8.95;;;5.13;;
23260;SDS011;11799;47.740;-3.390;2023-09-08T00:13:34;8.93;;;5.38;;
23260;SDS011;11799;47.740;-3.390;2023-09-08T00:15:59;9.68;;;6.07;;
23260;SDS011;11799;47.740;-3.390;2023-09-08T00:18:25;9.93;;;5.40;;
23260;SDS011;11799;47.740;-3.390;2023-09-08T00:20:50;12.50;;;5.75;;
23260;SDS011;11799;47.740;-3.390;2023-09-08T00:23:16;9.90;;;4.85;;
23260;SDS011;11799;47.740;-3.390;2023-09-08T00:25:41;8.50;;;5.00;;
23260;SDS011;11799;47.740;-3.390;2023-09-08T00:28:07;7.85;;;5.07;;
23260;SDS011;11799;47.740;-3.390;2023-09-08T00:30:33;7.68;;;5.10;;
23260;SDS011;11799;47.740;-3.390;2023-09-08T00:32:58;9.55;;;5.18;;
23260;SDS011;11799;47.740;-3.390;2023-09-08T00:35:24;6.25;;;4.90;;
23260;SDS011;11799;47.740;-3.390;2023-09-08T00:37:49;9.80;;;4.95;;
23260;SDS011;11799;47.740;-3.390;2023-09-08T00:40:15;8.52;;;4.82;;
23260;SDS011;11799;47.740;-3.390;2023-09-08T00:42:40;8.13;;;5.28;;
23260;SDS011;11799;47.740;-3.390;2023-09-08T00:45:06;7.80;;;5.18;;
23260;SDS011;11799;47.740;-3.390;2023-09-08T00:47:32;6.80;;;4.93;;
23260;SDS011;11799;47.740;-3.390;2023-09-08T00:49:58;6.43;;;5.18;;
23260;SDS011;11799;47.740;-3.390;2023-09-08T00:52:24;9.68;;;5.20;;
23260;SDS011;11799;47.740;-3.390;2023-09-08T00:54:49;7.20;;;4.82;;
23260;SDS011;11799;47.740;-3.390;2023-09-08T00:57:15;9.75;;;5.03;;
23260;SDS011;11799;47.740;-3.390;2023-09-08T00:59:41;8.82;;;4.72;;
23260;SDS011;11799;47.740;-3.390;2023-09-08T01:02:08;8.68;;;5.30;;
23260;SDS011;11799;47.740;-3.390;2023-09-08T01:04:34;8.30;;;5.00;;
23260;SDS011;11799;47.740;-3.390;2023-09-08T01:07:03;8.75;;;5.25;;
23260;SDS011;11799;47.740;-3.390;2023-09-08T01:09:28;6.03;;;4.70;;
23260;SDS011;11799;47.740;-3.390;2023-09-08T01:11:55;7.80;;;5.10;;
23260;SDS011;11799;47.740;-3.390;2023-09-08T01:14:26;6.35;;;5.20;;
23260;SDS011;11799;47.740;-3.390;2023-09-08T01:16:53;7.70;;;5.30;;
23260;SDS011;11799;47.740;-3.390;2023-09-08T01:19:19;8.05;;;5.22;;
23260;SDS011;11799;47.740;-3.390;2023-09-08T01:27:13;7.72;;;5.63;;
23260;SDS011;11799;47.740;-3.390;2023-09-08T01:29:41;6.45;;;5.00;;
23260;SDS011;11799;47.740;-3.390;2023-09-08T01:32:09;8.93;;;5.15;;
23260;SDS011;11799;47.740;-3.390;2023-09-08T01:34:36;6.90;;;5.25;;
23260;SDS011;11799;47.740;-3.390;2023-09-08T01:37:05;7.93;;;5.30;;
23260;SDS011;11799;47.740;-3.390;2023-09-08T01:39:32;11.35;;;5.47;;
23260;SDS011;11799;47.740;-3.390;2023-09-08T01:41:57;8.57;;;5.50;;
23260;SDS011;11799;47.740;-3.390;2023-09-08T01:44:23;9.63;;;5.40;;
23260;SDS011;11799;47.740;-3.390;2023-09-08T01:46:49;9.80;;;5.25;;
23260;SDS011;11799;47.740;-3.390;2023-09-08T01:49:16;11.10;;;5.20;;
23260;SDS011;11799;47.740;-3.390;2023-09-08T01:51:42;8.07;;;5.38;;
23260;SDS011;11799;47.740;-3.390;2023-09-08T01:54:09;7.13;;;5.10;;
23260;SDS011;11799;47.740;-3.390;2023-09-08T01:56:37;9.77;;;5.15;;
23260;SDS011;11799;47.740;-3.390;2023-09-08T01:59:02;6.72;;;5.07;;
23260;SDS011;11799;47.740;-3.390;2023-09-08T02:01:29;8.10;;;5.50;;
23260;SDS011;11799;47.740;-3.390;2023-09-08T02:03:54;8.65;;;5.18;;
23260;SDS011;11799;47.740;-3.390;2023-09-08T02:06:20;7.38;;;5.38;;
23260;SDS011;11799;47.740;-3.390;2023-09-08T02:08:45;6.72;;;5.05;;
23260;SDS011;11799;47.740;-3.390;2023-09-08T02:11:11;5.90;;;4.90;;
23260;SDS011;11799;47.740;-3.390;2023-09-08T02:13:38;7.55;;;5.20;;
23260;SDS011;11799;47.740;-3.390;2023-09-08T02:16:04;8.05;;;5.85;;
23260;SDS011;11799;47.740;-3.390;2023-09-08T02:18:29;7.80;;;4.78;;
23260;SDS011;11799;47.740;-3.390;2023-09-08T02:20:55;10.75;;;5.57;;
23260;SDS011;11799;47.740;-3.390;2023-09-08T02:23:21;7.88;;;5.35;;
23260;SDS011;11799;47.740;-3.390;2023-09-08T02:25:46;8.02;;;5.40;;
23260;SDS011;11799;47.740;-3.390;2023-09-08T02:28:12;7.35;;;5.63;;
23260;SDS011;11799;47.740;-3.390;2023-09-08T02:30:38;7.53;;;5.60;;
23260;SDS011;11799;47.740;-3.390;2023-09-08T02:33:04;8.00;;;5.32;;
23260;SDS011;11799;47.740;-3.390;2023-09-08T02:35:30;6.90;;;5.15;;
23260;SDS011;11799;47.740;-3.390;2023-09-08T02:37:58;8.43;;;5.60;;
23260;SDS011;11799;47.740;-3.390;2023-09-08T02:40:25;7.00;;;5.55;;
23260;SDS011;11799;47.740;-3.390;2023-09-08T02:42:51;8.38;;;5.63;;
23260;SDS011;11799;47.740;-3.390;2023-09-08T02:45:16;7.30;;;5.00;;
23260;SDS011;11799;47.740;-3.390;2023-09-08T02:47:42;6.38;;;5.30;;
23260;SDS011;11799;47.740;-3.390;2023-09-08T02:50:08;8.45;;;5.70;;
23260;SDS011;11799;47.740;-3.390;2023-09-08T02:52:34;6.80;;;5.15;;
23260;SDS011;11799;47.740;-3.390;2023-09-08T02:54:59;8.25;;;5.50;;
23260;SDS011;11799;47.740;-3.390;2023-09-08T02:57:25;8.32;;;5.68;;
23260;SDS011;11799;47.740;-3.390;2023-09-08T02:59:51;8.45;;;5.90;;
23260;SDS011;11799;47.740;-3.390;2023-09-08T03:02:16;8.18;;;5.30;;
23260;SDS011;11799;47.740;-3.390;2023-09-08T03:04:42;8.05;;;5.50;;
23260;SDS011;11799;47.740;-3.390;2023-09-08T03:07:08;6.03;;;5.25;;
23260;SDS011;11799;47.740;-3.390;2023-09-08T03:09:34;6.97;;;5.22;;
23260;SDS011;11799;47.740;-3.390;2023-09-08T03:12:00;9.43;;;5.13;;
23260;SDS011;11799;47.740;-3.390;2023-09-08T03:14:25;6.57;;;5.18;;
23260;SDS011;11799;47.740;-3.390;2023-09-08T03:16:51;7.47;;;5.72;;
23260;SDS011;11799;47.740;-3.390;2023-09-08T03:19:17;9.32;;;5.38;;
23260;SDS011;11799;47.740;-3.390;2023-09-08T03:21:43;6.78;;;5.20;;
23260;SDS011;11799;47.740;-3.390;2023-09-08T03:24:09;10.25;;;5.72;;
23260;SDS011;11799;47.740;-3.390;2023-09-08T03:26:35;7.18;;;5.13;;
23260;SDS011;11799;47.740;-3.390;2023-09-08T03:29:00;7.47;;;5.85;;
23260;SDS011;11799;47.740;-3.390;2023-09-08T03:31:26;10.35;;;5.78;;
23260;SDS011;11799;47.740;-3.390;2023-09-08T03:33:52;6.65;;;5.35;;
23260;SDS011;11799;47.740;-3.390;2023-09-08T03:36:18;7.07;;;5.55;;
23260;SDS011;11799;47.740;-3.390;2023-09-08T03:38:44;9.00;;;5.40;;
23260;SDS011;11799;47.740;-3.390;2023-09-08T03:41:09;5.97;;;4.95;;
23260;SDS011;11799;47.740;-3.390;2023-09-08T03:43:36;8.48;;;5.68;;
23260;SDS011;11799;47.740;-3.390;2023-09-08T03:46:01;5.80;;;5.13;;
23260;SDS011;11799;47.740;-3.390;2023-09-08T03:48:27;8.07;;;5.63;;
23260;SDS011;11799;47.740;-3.390;2023-09-08T03:50:52;7.82;;;5.43;;
23260;SDS011;11799;47.740;-3.390;2023-09-08T03:53:18;6.75;;;5.43;;
23260;SDS011;11799;47.740;-3.390;2023-09-08T03:55:44;6.70;;;5.10;;
23260;SDS011;11799;47.740;-3.390;2023-09-08T03:58:10;6.80;;;5.10;;
23260;SDS011;11799;47.740;-3.390;2023-09-08T04:00:35;8.18;;;5.88;;
23260;SDS011;11799;47.740;-3.390;2023-09-08T04:03:02;8.43;;;6.15;;
23260;SDS011;11799;47.740;-3.390;2023-09-08T04:05:28;7.25;;;5.30;;
23260;SDS011;11799;47.740;-3.390;2023-09-08T04:07:54;6.72;;;5.63;;
23260;SDS011;11799;47.740;-3.390;2023-09-08T04:10:19;10.55;;;5.97;;
23260;SDS011;11799;47.740;-3.390;2023-09-08T04:12:45;8.85;;;5.55;;
23260;SDS011;11799;47.740;-3.390;2023-09-08T04:15:11;8.07;;;5.70;;
23260;SDS011;11799;47.740;-3.390;2023-09-08T04:17:37;9.38;;;5.53;;
23260;SDS011;11799;47.740;-3.390;2023-09-08T04:20:03;8.98;;;5.50;;
23260;SDS011;11799;47.740;-3.390;2023-09-08T04:22:30;8.13;;;5.28;;
23260;SDS011;11799;47.740;-3.390;2023-09-08T04:24:57;9.70;;;5.78;;
23260;SDS011;11799;47.740;-3.390;2023-09-08T04:27:23;8.27;;;5.80;;
23260;SDS011;11799;47.740;-3.390;2023-09-08T04:29:49;10.88;;;5.75;;
23260;SDS011;11799;47.740;-3.390;2023-09-08T04:32:15;9.40;;;5.63;;
23260;SDS011;11799;47.740;-3.390;2023-09-08T04:34:41;7.22;;;5.95;;
23260;SDS011;11799;47.740;-3.390;2023-09-08T04:37:07;6.65;;;5.93;;
23260;SDS011;11799;47.740;-3.390;2023-09-08T04:39:34;8.32;;;6.10;;
23260;SDS011;11799;47.740;-3.390;2023-09-08T04:42:00;6.93;;;5.68;;
23260;SDS011;11799;47.740;-3.390;2023-09-08T04:44:26;11.23;;;6.10;;
23260;SDS011;11799;47.740;-3.390;2023-09-08T04:46:53;7.13;;;6.30;;
23260;SDS011;11799;47.740;-3.390;2023-09-08T04:49:19;8.00;;;5.68;;
23260;SDS011;11799;47.740;-3.390;2023-09-08T04:51:45;8.18;;;5.82;;
23260;SDS011;11799;47.740;-3.390;2023-09-08T04:54:13;8.05;;;6.10;;
23260;SDS011;11799;47.740;-3.390;2023-09-08T04:56:38;7.00;;;6.30;;
23260;SDS011;11799;47.740;-3.390;2023-09-08T04:59:05;8.82;;;6.07;;
23260;SDS011;11799;47.740;-3.390;2023-09-08T05:01:31;7.72;;;5.70;;
23260;SDS011;11799;47.740;-3.390;2023-09-08T05:04:01;7.72;;;5.97;;
23260;SDS011;11799;47.740;-3.390;2023-09-08T05:06:27;7.75;;;5.82;;
23260;SDS011;11799;47.740;-3.390;2023-09-08T05:08:53;10.23;;;5.88;;
23260;SDS011;11799;47.740;-3.390;2023-09-08T05:11:20;6.57;;;5.10;;
23260;SDS011;11799;47.740;-3.390;2023-09-08T05:13:46;8.65;;;5.40;;
23260;SDS011;11799;47.740;-3.390;2023-09-08T05:16:12;6.60;;;5.05;;
23260;SDS011;11799;47.740;-3.390;2023-09-08T05:18:42;9.25;;;5.82;;
23260;SDS011;11799;47.740;-3.390;2023-09-08T05:21:08;5.85;;;5.18;;
23260;SDS011;11799;47.740;-3.390;2023-09-08T05:23:33;7.72;;;5.25;;
23260;SDS011;11799;47.740;-3.390;2023-09-08T05:25:59;7.85;;;5.45;;
23260;SDS011;11799;47.740;-3.390;2023-09-08T05:28:25;7.00;;;5.65;;
23260;SDS011;11799;47.740;-3.390;2023-09-08T05:30:51;7.30;;;5.78;;
23260;SDS011;11799;47.740;-3.390;2023-09-08T05:33:17;11.45;;;5.82;;
23260;SDS011;11799;47.740;-3.390;2023-09-08T05:35:44;8.38;;;5.72;;
23260;SDS011;11799;47.740;-3.390;2023-09-08T05:38:10;9.88;;;5.15;;
23260;SDS011;11799;47.740;-3.390;2023-09-08T05:40:36;7.03;;;5.70;;
23260;SDS011;11799;47.740;-3.390;2023-09-08T05:43:03;9.40;;;5.53;;
23260;SDS011;11799;47.740;-3.390;2023-09-08T05:45:31;8.85;;;5.50;;
23260;SDS011;11799;47.740;-3.390;2023-09-08T05:47:57;7.38;;;5.35;;
23260;SDS011;11799;47.740;-3.390;2023-09-08T05:50:23;11.55;;;6.30;;
23260;SDS011;11799;47.740;-3.390;2023-09-08T05:52:50;8.73;;;5.60;;
23260;SDS011;11799;47.740;-3.390;2023-09-08T05:55:16;8.55;;;6.10;;
23260;SDS011;11799;47.740;-3.390;2023-09-08T05:57:42;6.72;;;5.60;;
23260;SDS011;11799;47.740;-3.390;2023-09-08T06:00:08;9.68;;;5.68;;
23260;SDS011;11799;47.740;-3.390;2023-09-08T06:02:43;8.23;;;5.53;;
23260;SDS011;11799;47.740;-3.390;2023-09-08T06:05:11;6.35;;;5.57;;
23260;SDS011;11799;47.740;-3.390;2023-09-08T06:07:37;6.30;;;5.57;;
23260;SDS011;11799;47.740;-3.390;2023-09-08T06:10:04;9.40;;;5.75;;
23260;SDS011;11799;47.740;-3.390;2023-09-08T06:12:30;9.38;;;5.90;;
23260;SDS011;11799;47.740;-3.390;2023-09-08T06:14:55;7.00;;;5.60;;
23260;SDS011;11799;47.740;-3.390;2023-09-08T06:17:21;7.85;;;5.40;;
23260;SDS011;11799;47.740;-3.390;2023-09-08T06:19:47;8.23;;;5.88;;
23260;SDS011;11799;47.740;-3.390;2023-09-08T06:22:13;7.18;;;5.80;;
23260;SDS011;11799;47.740;-3.390;2023-09-08T06:24:38;6.43;;;5.82;;
23260;SDS011;11799;47.740;-3.390;2023-09-08T06:27:05;7.75;;;6.03;;
23260;SDS011;11799;47.740;-3.390;2023-09-08T06:29:31;8.20;;;6.00;;
23260;SDS011;11799;47.740;-3.390;2023-09-08T06:31:56;7.60;;;5.35;;
23260;SDS011;11799;47.740;-3.390;2023-09-08T06:34:22;8.45;;;5.80;;
23260;SDS011;11799;47.740;-3.390;2023-09-08T06:36:48;9.50;;;5.80;;
23260;SDS011;11799;47.740;-3.390;2023-09-08T06:39:14;10.70;;;5.65;;
23260;SDS011;11799;47.740;-3.390;2023-09-08T06:41:40;11.70;;;6.55;;
23260;SDS011;11799;47.740;-3.390;2023-09-08T06:44:09;6.47;;;5.80;;
23260;SDS011;11799;47.740;-3.390;2023-09-08T06:46:34;10.32;;;6.30;;
23260;SDS011;11799;47.740;-3.390;2023-09-08T06:49:00;9.52;;;5.63;;
23260;SDS011;11799;47.740;-3.390;2023-09-08T06:51:25;7.60;;;5.65;;
23260;SDS011;11799;47.740;-3.390;2023-09-08T06:53:55;8.60;;;5.65;;
23260;SDS011;11799;47.740;-3.390;2023-09-08T06:56:22;9.57;;;6.10;;
23260;SDS011;11799;47.740;-3.390;2023-09-08T06:58:49;6.85;;;5.78;;
23260;SDS011;11799;47.740;-3.390;2023-09-08T07:01:16;10.98;;;6.90;;
23260;SDS011;11799;47.740;-3.390;2023-09-08T07:03:41;14.63;;;7.22;;
23260;SDS011;11799;47.740;-3.390;2023-09-08T07:06:08;8.48;;;6.20;;
23260;SDS011;11799;47.740;-3.390;2023-09-08T07:08:34;8.90;;;6.55;;
23260;SDS011;11799;47.740;-3.390;2023-09-08T07:11:00;13.23;;;6.65;;
23260;SDS011;11799;47.740;-3.390;2023-09-08T07:13:26;10.98;;;7.03;;
23260;SDS011;11799;47.740;-3.390;2023-09-08T07:15:51;10.80;;;6.47;;
23260;SDS011;11799;47.740;-3.390;2023-09-08T07:18:17;13.88;;;6.80;;
23260;SDS011;11799;47.740;-3.390;2023-09-08T07:20:46;11.88;;;6.30;;
23260;SDS011;11799;47.740;-3.390;2023-09-08T07:23:15;7.65;;;6.00;;
23260;SDS011;11799;47.740;-3.390;2023-09-08T07:25:45;11.52;;;5.75;;
23260;SDS011;11799;47.740;-3.390;2023-09-08T07:28:11;11.40;;;5.95;;
23260;SDS011;11799;47.740;-3.390;2023-09-08T07:30:37;11.98;;;5.78;;
23260;SDS011;11799;47.740;-3.390;2023-09-08T07:33:02;10.07;;;5.70;;
23260;SDS011;11799;47.740;-3.390;2023-09-08T07:35:30;10.68;;;5.53;;
23260;SDS011;11799;47.740;-3.390;2023-09-08T07:37:55;10.60;;;5.57;;
23260;SDS011;11799;47.740;-3.390;2023-09-08T07:40:21;7.93;;;5.03;;
23260;SDS011;11799;47.740;-3.390;2023-09-08T07:42:47;7.00;;;4.72;;
23260;SDS011;11799;47.740;-3.390;2023-09-08T07:45:13;6.78;;;4.85;;
23260;SDS011;11799;47.740;-3.390;2023-09-08T07:47:38;5.10;;;4.60;;
23260;SDS011;11799;47.740;-3.390;2023-09-08T07:50:17;8.60;;;4.68;;
23260;SDS011;11799;47.740;-3.390;2023-09-08T07:52:53;5.45;;;4.63;;
23260;SDS011;11799;47.740;-3.390;2023-09-08T07:55:20;9.25;;;4.72;;
23260;SDS011;11799;47.740;-3.390;2023-09-08T07:57:52;8.43;;;4.70;;
23260;SDS011;11799;47.740;-3.390;2023-09-08T08:00:19;6.53;;;4.50;;
23260;SDS011;11799;47.740;-3.390;2023-09-08T08:02:45;14.82;;;4.68;;
23260;SDS011;11799;47.740;-3.390;2023-09-08T08:05:18;11.48;;;5.00;;
23260;SDS011;11799;47.740;-3.390;2023-09-08T08:07:43;11.25;;;5.28;;
23260;SDS011;11799;47.740;-3.390;2023-09-08T08:10:10;12.20;;;4.60;;
23260;SDS011;11799;47.740;-3.390;2023-09-08T08:12:37;13.38;;;5.55;;
23260;SDS011;11799;47.740;-3.390;2023-09-08T08:15:04;13.40;;;5.68;;
23260;SDS011;11799;47.740;-3.390;2023-09-08T08:17:30;9.30;;;4.72;;
23260;SDS011;11799;47.740;-3.390;2023-09-08T08:19:56;7.40;;;4.93;;
23260;SDS011;11799;47.740;-3.390;2023-09-08T08:22:26;12.20;;;5.03;;
23260;SDS011;11799;47.740;-3.390;2023-09-08T08:24:52;15.65;;;4.80;;
23260;SDS011;11799;47.740;-3.390;2023-09-08T08:27:17;11.27;;;4.63;;
23260;SDS011;11799;47.740;-3.390;2023-09-08T08:29:43;10.60;;;4.90;;
23260;SDS011;11799;47.740;-3.390;2023-09-08T08:32:08;9.98;;;4.63;;
23260;SDS011;11799;47.740;-3.390;2023-09-08T08:34:34;8.50;;;4.88;;
23260;SDS011;11799;47.740;-3.390;2023-09-08T08:37:00;10.68;;;5.03;;
23260;SDS011;11799;47.740;-3.390;2023-09-08T08:39:25;12.90;;;5.13;;
23260;SDS011;11799;47.740;-3.390;2023-09-08T08:41:51;11.15;;;5.20;;
23260;SDS011;11799;47.740;-3.390;2023-09-08T08:44:17;11.95;;;6.10;;
23260;SDS011;11799;47.740;-3.390;2023-09-08T08:46:44;12.85;;;5.88;;
23260;SDS011;11799;47.740;-3.390;2023-09-08T08:49:12;11.93;;;5.93;;
23260;SDS011;11799;47.740;-3.390;2023-09-08T08:51:40;13.15;;;6.25;;
23260;SDS011;11799;47.740;-3.390;2023-09-08T08:54:09;14.38;;;6.53;;
23260;SDS011;11799;47.740;-3.390;2023-09-08T08:56:35;16.05;;;6.38;;
23260;SDS011;11799;47.740;-3.390;2023-09-08T08:59:01;10.18;;;5.72;;
23260;SDS011;11799;47.740;-3.390;2023-09-08T09:01:28;11.48;;;6.32;;
23260;SDS011;11799;47.740;-3.390;2023-09-08T09:03:54;10.02;;;6.40;;
23260;SDS011;11799;47.740;-3.390;2023-09-08T09:06:20;16.50;;;6.15;;
23260;SDS011;11799;47.740;-3.390;2023-09-08T09:08:46;9.88;;;5.55;;
23260;SDS011;11799;47.740;-3.390;2023-09-08T09:11:12;11.20;;;5.40;;
23260;SDS011;11799;47.740;-3.390;2023-09-08T09:13:38;10.98;;;5.07;;
23260;SDS011;11799;47.740;-3.390;2023-09-08T09:16:04;9.43;;;5.18;;
23260;SDS011;11799;47.740;-3.390;2023-09-08T09:18:33;9.07;;;4.65;;
23260;SDS011;11799;47.740;-3.390;2023-09-08T09:21:00;7.45;;;4.72;;
23260;SDS011;11799;47.740;-3.390;2023-09-08T09:23:30;7.53;;;4.57;;
23260;SDS011;11799;47.740;-3.390;2023-09-08T09:26:00;9.52;;;4.55;;
23260;SDS011;11799;47.740;-3.390;2023-09-08T09:28:29;8.15;;;5.20;;
23260;SDS011;11799;47.740;-3.390;2023-09-08T09:30:55;11.48;;;4.63;;
23260;SDS011;11799;47.740;-3.390;2023-09-08T09:33:21;6.03;;;4.47;;
23260;SDS011;11799;47.740;-3.390;2023-09-08T09:35:48;10.30;;;4.80;;
23260;SDS011;11799;47.740;-3.390;2023-09-08T09:38:17;16.45;;;5.70;;
23260;SDS011;11799;47.740;-3.390;2023-09-08T09:40:46;15.07;;;5.43;;
23260;SDS011;11799;47.740;-3.390;2023-09-08T09:43:14;11.07;;;4.88;;
23260;SDS011;11799;47.740;-3.390;2023-09-08T09:45:41;14.23;;;4.60;;
23260;SDS011;11799;47.740;-3.390;2023-09-08T09:48:08;10.95;;;4.60;;
23260;SDS011;11799;47.740;-3.390;2023-09-08T09:50:39;10.88;;;4.50;;
23260;SDS011;11799;47.740;-3.390;2023-09-08T09:53:12;10.43;;;3.95;;
23260;SDS011;11799;47.740;-3.390;2023-09-08T09:55:45;9.00;;;3.47;;
23260;SDS011;11799;47.740;-3.390;2023-09-08T09:58:11;5.80;;;3.88;;
23260;SDS011;11799;47.740;-3.390;2023-09-08T10:00:37;6.68;;;3.58;;
23260;SDS011;11799;47.740;-3.390;2023-09-08T10:03:05;5.50;;;3.20;;
23260;SDS011;11799;47.740;-3.390;2023-09-08T10:05:31;6.80;;;3.58;;
23260;SDS011;11799;47.740;-3.390;2023-09-08T10:07:57;7.35;;;3.75;;
23260;SDS011;11799;47.740;-3.390;2023-09-08T10:10:23;9.00;;;4.20;;
23260;SDS011;11799;47.740;-3.390;2023-09-08T10:12:52;8.05;;;4.13;;
23260;SDS011;11799;47.740;-3.390;2023-09-08T10:15:23;10.70;;;4.80;;
23260;SDS011;11799;47.740;-3.390;2023-09-08T10:20:22;9.70;;;4.22;;
23260;SDS011;11799;47.740;-3.390;2023-09-08T10:22:56;10.25;;;4.13;;
23260;SDS011;11799;47.740;-3.390;2023-09-08T10:25:31;9.43;;;4.25;;
23260;SDS011;11799;47.740;-3.390;2023-09-08T10:28:01;10.45;;;4.03;;
23260;SDS011;11799;47.740;-3.390;2023-09-08T10:30:28;5.72;;;4.13;;
23260;SDS011;11799;47.740;-3.390;2023-09-08T10:32:55;7.53;;;3.72;;
23260;SDS011;11799;47.740;-3.390;2023-09-08T10:35:22;8.63;;;4.38;;
23260;SDS011;11799;47.740;-3.390;2023-09-08T10:37:48;9.57;;;3.70;;
23260;SDS011;11799;47.740;-3.390;2023-09-08T10:40:20;7.35;;;3.88;;
23260;SDS011;11799;47.740;-3.390;2023-09-08T10:42:47;6.05;;;3.72;;
23260;SDS011;11799;47.740;-3.390;2023-09-08T10:45:19;7.93;;;3.63;;
23260;SDS011;11799;47.740;-3.390;2023-09-08T10:50:25;7.65;;;3.50;;
23260;SDS011;11799;47.740;-3.390;2023-09-08T11:01:01;7.53;;;3.42;;
23260;SDS011;11799;47.740;-3.390;2023-09-08T11:03:49;8.32;;;3.40;;
23260;SDS011;11799;47.740;-3.390;2023-09-08T11:06:15;10.05;;;2.90;;
23260;SDS011;11799;47.740;-3.390;2023-09-08T11:08:43;9.55;;;3.03;;
23260;SDS011;11799;47.740;-3.390;2023-09-08T11:11:10;6.30;;;3.17;;
23260;SDS011;11799;47.740;-3.390;2023-09-08T11:13:37;5.60;;;3.13;;
23260;SDS011;11799;47.740;-3.390;2023-09-08T11:16:05;7.63;;;3.15;;
23260;SDS011;11799;47.740;-3.390;2023-09-08T11:18:31;9.23;;;2.83;;
23260;SDS011;11799;47.740;-3.390;2023-09-08T11:23:27;5.50;;;2.80;;
23260;SDS011;11799;47.740;-3.390;2023-09-08T11:25:53;6.95;;;2.95;;
23260;SDS011;11799;47.740;-3.390;2023-09-08T11:28:19;9.55;;;3.22;;
23260;SDS011;11799;47.740;-3.390;2023-09-08T11:30:47;8.95;;;3.30;;
23260;SDS011;11799;47.740;-3.390;2023-09-08T11:33:13;7.43;;;3.50;;
23260;SDS011;11799;47.740;-3.390;2023-09-08T11:35:46;6.28;;;3.25;;
23260;SDS011;11799;47.740;-3.390;2023-09-08T11:38:13;8.97;;;3.30;;
23260;SDS011;11799;47.740;-3.390;2023-09-08T11:40:38;10.27;;;4.30;;
23260;SDS011;11799;47.740;-3.390;2023-09-08T11:43:06;11.65;;;4.20;;
23260;SDS011;11799;47.740;-3.390;2023-09-08T11:45:35;9.57;;;4.20;;
23260;SDS011;11799;47.740;-3.390;2023-09-08T11:48:01;18.02;;;4.38;;
23260;SDS011;11799;47.740;-3.390;2023-09-08T11:50:29;12.85;;;4.43;;
23260;SDS011;11799;47.740;-3.390;2023-09-08T11:52:55;13.23;;;4.40;;
23260;SDS011;11799;47.740;-3.390;2023-09-08T11:55:21;12.43;;;4.00;;
23260;SDS011;11799;47.740;-3.390;2023-09-08T11:57:48;14.32;;;4.13;;
23260;SDS011;11799;47.740;-3.390;2023-09-08T12:00:18;14.95;;;4.68;;
23260;SDS011;11799;47.740;-3.390;2023-09-08T12:02:48;13.80;;;4.43;;
23260;SDS011;11799;47.740;-3.390;2023-09-08T12:05:21;15.10;;;4.47;;
23260;SDS011;11799;47.740;-3.390;2023-09-08T12:07:51;12.43;;;4.60;;
23260;SDS011;11799;47.740;-3.390;2023-09-08T12:10:17;9.88;;;4.03;;
23260;SDS011;11799;47.740;-3.390;2023-09-08T12:12:44;8.93;;;3.78;;
23260;SDS011;11799;47.740;-3.390;2023-09-08T12:15:10;15.48;;;3.92;;
23260;SDS011;11799;47.740;-3.390;2023-09-08T12:17:49;10.70;;;3.63;;
23260;SDS011;11799;47.740;-3.390;2023-09-08T12:20:15;7.80;;;3.38;;
23260;SDS011;11799;47.740;-3.390;2023-09-08T12:22:48;6.53;;;3.70;;
23260;SDS011;11799;47.740;-3.390;2023-09-08T12:25:15;6.03;;;3.72;;
23260;SDS011;11799;47.740;-3.390;2023-09-08T12:27:41;7.93;;;3.47;;
23260;SDS011;11799;47.740;-3.390;2023-09-08T12:30:08;9.57;;;3.72;;
23260;SDS011;11799;47.740;-3.390;2023-09-08T12:32:35;9.38;;;3.65;;
23260;SDS011;11799;47.740;-3.390;2023-09-08T12:35:02;6.53;;;3.70;;
23260;SDS011;11799;47.740;-3.390;2023-09-08T12:37:28;6.72;;;3.20;;
23260;SDS011;11799;47.740;-3.390;2023-09-08T12:39:55;4.22;;;2.97;;
23260;SDS011;11799;47.740;-3.390;2023-09-08T12:42:21;8.40;;;3.70;;
23260;SDS011;11799;47.740;-3.390;2023-09-08T12:44:51;10.38;;;3.28;;
23260;SDS011;11799;47.740;-3.390;2023-09-08T12:47:16;10.77;;;3.10;;
23260;SDS011;11799;47.740;-3.390;2023-09-08T12:49:42;6.40;;;3.17;;
23260;SDS011;11799;47.740;-3.390;2023-09-08T12:52:07;5.53;;;3.22;;
23260;SDS011;11799;47.740;-3.390;2023-09-08T12:54:34;9.43;;;3.22;;
23260;SDS011;11799;47.740;-3.390;2023-09-08T12:57:00;5.78;;;3.10;;
23260;SDS011;11799;47.740;-3.390;2023-09-08T12:59:26;8.20;;;3.33;;
23260;SDS011;11799;47.740;-3.390;2023-09-08T13:01:52;10.93;;;3.35;;
23260;SDS011;11799;47.740;-3.390;2023-09-08T13:04:18;6.97;;;3.35;;
23260;SDS011;11799;47.740;-3.390;2023-09-08T13:06:44;8.75;;;3.22;;
23260;SDS011;11799;47.740;-3.390;2023-09-08T13:09:10;5.63;;;3.45;;
23260;SDS011;11799;47.740;-3.390;2023-09-08T13:11:36;7.47;;;3.40;;
23260;SDS011;11799;47.740;-3.390;2023-09-08T13:14:02;8.15;;;3.58;;
23260;SDS011;11799;47.740;-3.390;2023-09-08T13:16:28;9.25;;;3.50;;
23260;SDS011;11799;47.740;-3.390;2023-09-08T13:18:54;7.13;;;3.30;;
23260;SDS011;11799;47.740;-3.390;2023-09-08T13:21:20;8.32;;;4.10;;
23260;SDS011;11799;47.740;-3.390;2023-09-08T13:23:46;7.97;;;3.20;;
23260;SDS011;11799;47.740;-3.390;2023-09-08T13:26:11;16.05;;;4.05;;
23260;SDS011;11799;47.740;-3.390;2023-09-08T13:28:37;7.47;;;3.90;;
23260;SDS011;11799;47.740;-3.390;2023-09-08T13:31:02;6.28;;;3.70;;
23260;SDS011;11799;47.740;-3.390;2023-09-08T13:33:28;11.57;;;3.40;;
23260;SDS011;11799;47.740;-3.390;2023-09-08T13:35:53;11.63;;;3.58;;
23260;SDS011;11799;47.740;-3.390;2023-09-08T13:38:19;5.38;;;3.15;;
23260;SDS011;11799;47.740;-3.390;2023-09-08T13:40:45;8.57;;;3.53;;
23260;SDS011;11799;47.740;-3.390;2023-09-08T13:43:10;8.65;;;3.83;;
23260;SDS011;11799;47.740;-3.390;2023-09-08T13:45:36;6.32;;;3.70;;
23260;SDS011;11799;47.740;-3.390;2023-09-08T13:48:02;9.82;;;3.58;;
23260;SDS011;11799;47.740;-3.390;2023-09-08T13:50:29;7.22;;;3.58;;
23260;SDS011;11799;47.740;-3.390;2023-09-08T13:52:55;7.45;;;3.33;;
23260;SDS011;11799;47.740;-3.390;2023-09-08T13:55:20;8.95;;;3.40;;
23260;SDS011;11799;47.740;-3.390;2023-09-08T13:57:49;10.80;;;3.92;;
23260;SDS011;11799;47.740;-3.390;2023-09-08T14:00:15;8.57;;;3.70;;
23260;SDS011;11799;47.740;-3.390;2023-09-08T14:02:41;6.40;;;3.45;;
23260;SDS011;11799;47.740;-3.390;2023-09-08T14:05:07;16.55;;;3.92;;
23260;SDS011;11799;47.740;-3.390;2023-09-08T14:07:32;5.07;;;3.33;;
23260;SDS011;11799;47.740;-3.390;2023-09-08T14:09:58;4.82;;;3.15;;
23260;SDS011;11799;47.740;-3.390;2023-09-08T14:12:24;6.45;;;3.15;;
23260;SDS011;11799;47.740;-3.390;2023-09-08T14:14:49;6.50;;;2.97;;
23260;SDS011;11799;47.740;-3.390;2023-09-08T14:17:15;7.07;;;3.00;;
23260;SDS011;11799;47.740;-3.390;2023-09-08T14:19:40;8.73;;;3.58;;
23260;SDS011;11799;47.740;-3.390;2023-09-08T14:22:06;6.28;;;3.25;;
23260;SDS011;11799;47.740;-3.390;2023-09-08T14:24:32;8.55;;;3.30;;
23260;SDS011;11799;47.740;-3.390;2023-09-08T14:26:57;8.02;;;3.22;;
23260;SDS011;11799;47.740;-3.390;2023-09-08T14:29:23;8.38;;;3.53;;
23260;SDS011;11799;47.740;-3.390;2023-09-08T14:31:48;7.43;;;3.33;;
23260;SDS011;11799;47.740;-3.390;2023-09-08T14:34:14;7.65;;;3.58;;
23260;SDS011;11799;47.740;-3.390;2023-09-08T14:36:40;6.28;;;3.30;;
23260;SDS011;11799;47.740;-3.390;2023-09-08T14:39:06;6.13;;;3.45;;
23260;SDS011;11799;47.740;-3.390;2023-09-08T14:41:31;4.50;;;2.70;;
23260;SDS011;11799;47.740;-3.390;2023-09-08T14:43:57;5.13;;;3.20;;
23260;SDS011;11799;47.740;-3.390;2023-09-08T14:46:22;8.07;;;2.85;;
23260;SDS011;11799;47.740;-3.390;2023-09-08T14:48:48;8.57;;;3.47;;